sensor_id;sensor_type;location;lat;lon;timestamp;temperature;humidity
20528;DHT22;23612;50.894;10.700;2023-02-11T00:01:27;2.80;99.90
20528;DHT22;23612;50.894;10.700;2023-02-11T00:03:54;2.90;99.90
20528;DHT22;23612;50.894;10.700;2023-02-11T00:06:20;2.90;99.90
20528;DHT22;23612;50.894;10.700;2023-02-11T00:08:45;2.90;99.90
20528;DHT22;23612;50.894;10.700;2023-02-11T00:11:16;3.00;99.90
20528;DHT22;23612;50.894;10.700;2023-02-11T00:13:43;3.00;99.90
20528;DHT22;23612;50.894;10.700;2023-02-11T00:16:11;3.10;99.90
20528;DHT22;23612;50.894;10.700;2023-02-11T00:18:37;3.10;99.90
20528;DHT22;23612;50.894;10.700;2023-02-11T00:21:13;3.20;99.90
20528;DHT22;23612;50.894;10.700;2023-02-11T00:23:39;3.20;99.90
20528;DHT22;23612;50.894;10.700;2023-02-11T00:26:22;3.20;99.90
20528;DHT22;23612;50.894;10.700;2023-02-11T00:28:49;3.20;99.90
20528;DHT22;23612;50.894;10.700;2023-02-11T00:31:17;3.20;99.90
20528;DHT22;23612;50.894;10.700;2023-02-11T00:33:42;3.20;99.90
20528;DHT22;23612;50.894;10.700;2023-02-11T00:36:12;3.20;99.90
20528;DHT22;23612;50.894;10.700;2023-02-11T00:38:38;3.10;99.90
20528;DHT22;23612;50.894;10.700;2023-02-11T00:41:04;3.10;99.90
20528;DHT22;23612;50.894;10.700;2023-02-11T00:43:29;3.00;99.90
20528;DHT22;23612;50.894;10.700;2023-02-11T00:45:55;3.00;99.90
20528;DHT22;23612;50.894;10.700;2023-02-11T00:48:20;3.00;99.90
20528;DHT22;23612;50.894;10.700;2023-02-11T00:50:46;3.00;99.90
20528;DHT22;23612;50.894;10.700;2023-02-11T00:53:11;2.90;99.90
20528;DHT22;23612;50.894;10.700;2023-02-11T00:55:37;2.90;99.90
20528;DHT22;23612;50.894;10.700;2023-02-11T00:58:02;2.90;99.90
20528;DHT22;23612;50.894;10.700;2023-02-11T01:00:28;2.90;99.90
20528;DHT22;23612;50.894;10.700;2023-02-11T01:02:54;2.90;99.90
20528;DHT22;23612;50.894;10.700;2023-02-11T01:05:20;2.90;99.90
20528;DHT22;23612;50.894;10.700;2023-02-11T01:07:45;2.80;99.90
20528;DHT22;23612;50.894;10.700;2023-02-11T01:10:13;2.90;99.90
20528;DHT22;23612;50.894;10.700;2023-02-11T01:12:39;2.80;99.90
20528;DHT22;23612;50.894;10.700;2023-02-11T01:15:06;2.80;99.90
20528;DHT22;23612;50.894;10.700;2023-02-11T01:17:33;2.80;99.90
20528;DHT22;23612;50.894;10.700;2023-02-11T01:20:00;2.80;99.90
20528;DHT22;23612;50.894;10.700;2023-02-11T01:22:26;2.80;99.90
20528;DHT22;23612;50.894;10.700;2023-02-11T01:24:51;2.80;99.90
20528;DHT22;23612;50.894;10.700;2023-02-11T01:27:17;2.80;99.90
20528;DHT22;23612;50.894;10.700;2023-02-11T01:29:42;2.80;99.90
20528;DHT22;23612;50.894;10.700;2023-02-11T01:32:08;2.80;99.90
20528;DHT22;23612;50.894;10.700;2023-02-11T01:34:33;2.70;99.90
20528;DHT22;23612;50.894;10.700;2023-02-11T01:36:59;2.70;99.90
20528;DHT22;23612;50.894;10.700;2023-02-11T01:39:26;2.70;99.90
20528;DHT22;23612;50.894;10.700;2023-02-11T01:41:52;2.70;99.90
20528;DHT22;23612;50.894;10.700;2023-02-11T01:44:30;2.70;99.90
20528;DHT22;23612;50.894;10.700;2023-02-11T01:46:56;2.80;99.90
20528;DHT22;23612;50.894;10.700;2023-02-11T01:52:29;2.90;99.90
20528;DHT22;23612;50.894;10.700;2023-02-11T01:54:59;3.00;99.90
20528;DHT22;23612;50.894;10.700;2023-02-11T01:57:48;3.00;99.90
20528;DHT22;23612;50.894;10.700;2023-02-11T02:00:33;3.00;99.90
20528;DHT22;23612;50.894;10.700;2023-02-11T02:03:17;3.00;99.90
20528;DHT22;23612;50.894;10.700;2023-02-11T02:08:24;3.10;99.90
20528;DHT22;23612;50.894;10.700;2023-02-11T02:10:54;3.10;99.90
20528;DHT22;23612;50.894;10.700;2023-02-11T02:13:22;3.10;99.90
20528;DHT22;23612;50.894;10.700;2023-02-11T02:15:59;3.10;99.90
20528;DHT22;23612;50.894;10.700;2023-02-11T02:19:08;3.10;99.90
20528;DHT22;23612;50.894;10.700;2023-02-11T02:22:04;3.10;99.90
20528;DHT22;23612;50.894;10.700;2023-02-11T02:27:28;3.00;99.90
20528;DHT22;23612;50.894;10.700;2023-02-11T02:30:15;3.00;99.90
20528;DHT22;23612;50.894;10.700;2023-02-11T02:38:12;3.10;99.90
20528;DHT22;23612;50.894;10.700;2023-02-11T02:40:49;3.20;99.90
20528;DHT22;23612;50.894;10.700;2023-02-11T02:43:18;3.20;99.90
20528;DHT22;23612;50.894;10.700;2023-02-11T02:45:45;3.20;99.90
20528;DHT22;23612;50.894;10.700;2023-02-11T02:48:31;3.10;99.90
20528;DHT22;23612;50.894;10.700;2023-02-11T02:51:20;3.20;99.90
20528;DHT22;23612;50.894;10.700;2023-02-11T02:56:47;3.10;99.90
20528;DHT22;23612;50.894;10.700;2023-02-11T02:59:23;3.10;99.90
20528;DHT22;23612;50.894;10.700;2023-02-11T03:10:35;3.00;99.90
20528;DHT22;23612;50.894;10.700;2023-02-11T03:13:02;3.00;99.90
20528;DHT22;23612;50.894;10.700;2023-02-11T03:15:32;3.00;99.90
20528;DHT22;23612;50.894;10.700;2023-02-11T03:17:59;3.10;99.90
20528;DHT22;23612;50.894;10.700;2023-02-11T03:20:26;3.20;99.90
20528;DHT22;23612;50.894;10.700;2023-02-11T03:23:04;3.20;99.90
20528;DHT22;23612;50.894;10.700;2023-02-11T03:25:36;3.30;99.90
20528;DHT22;23612;50.894;10.700;2023-02-11T03:28:41;3.50;99.90
20528;DHT22;23612;50.894;10.700;2023-02-11T03:31:21;3.70;99.90
20528;DHT22;23612;50.894;10.700;2023-02-11T03:34:07;3.80;99.90
20528;DHT22;23612;50.894;10.700;2023-02-11T03:36:50;3.80;99.90
20528;DHT22;23612;50.894;10.700;2023-02-11T03:39:21;3.90;99.90
20528;DHT22;23612;50.894;10.700;2023-02-11T03:41:50;3.90;99.90
20528;DHT22;23612;50.894;10.700;2023-02-11T03:44:18;3.90;99.90
20528;DHT22;23612;50.894;10.700;2023-02-11T03:46:48;3.90;99.90
20528;DHT22;23612;50.894;10.700;2023-02-11T03:49:17;4.00;99.90
20528;DHT22;23612;50.894;10.700;2023-02-11T03:51:45;4.00;99.90
20528;DHT22;23612;50.894;10.700;2023-02-11T03:54:17;3.90;99.90
20528;DHT22;23612;50.894;10.700;2023-02-11T03:56:50;4.00;99.90
20528;DHT22;23612;50.894;10.700;2023-02-11T03:59:16;4.00;99.90
20528;DHT22;23612;50.894;10.700;2023-02-11T04:01:42;4.00;99.90
20528;DHT22;23612;50.894;10.700;2023-02-11T04:04:08;3.90;99.90
20528;DHT22;23612;50.894;10.700;2023-02-11T04:06:33;3.90;99.90
20528;DHT22;23612;50.894;10.700;2023-02-11T04:08:59;3.80;99.90
20528;DHT22;23612;50.894;10.700;2023-02-11T04:11:24;3.80;99.90
20528;DHT22;23612;50.894;10.700;2023-02-11T04:13:50;3.80;99.90
20528;DHT22;23612;50.894;10.700;2023-02-11T04:16:15;3.80;99.90
20528;DHT22;23612;50.894;10.700;2023-02-11T04:18:41;3.80;99.90
20528;DHT22;23612;50.894;10.700;2023-02-11T04:21:06;3.80;99.90
20528;DHT22;23612;50.894;10.700;2023-02-11T04:23:32;3.80;99.90
20528;DHT22;23612;50.894;10.700;2023-02-11T04:25:57;3.80;99.90
20528;DHT22;23612;50.894;10.700;2023-02-11T04:28:23;3.80;99.90
20528;DHT22;23612;50.894;10.700;2023-02-11T04:30:49;3.70;99.90
20528;DHT22;23612;50.894;10.700;2023-02-11T04:33:16;3.70;99.90
20528;DHT22;23612;50.894;10.700;2023-02-11T04:35:41;3.70;99.90
20528;DHT22;23612;50.894;10.700;2023-02-11T04:38:06;3.70;99.90
20528;DHT22;23612;50.894;10.700;2023-02-11T04:40:32;3.70;99.90
20528;DHT22;23612;50.894;10.700;2023-02-11T04:42:58;3.70;99.90
20528;DHT22;23612;50.894;10.700;2023-02-11T04:45:23;3.70;99.90
20528;DHT22;23612;50.894;10.700;2023-02-11T04:47:49;3.70;99.90
20528;DHT22;23612;50.894;10.700;2023-02-11T04:50:14;3.70;99.90
20528;DHT22;23612;50.894;10.700;2023-02-11T04:52:40;3.80;99.90
20528;DHT22;23612;50.894;10.700;2023-02-11T04:55:05;3.80;99.90
20528;DHT22;23612;50.894;10.700;2023-02-11T04:57:31;3.80;99.90
20528;DHT22;23612;50.894;10.700;2023-02-11T04:59:56;3.80;99.90
20528;DHT22;23612;50.894;10.700;2023-02-11T05:02:22;3.90;99.90
20528;DHT22;23612;50.894;10.700;2023-02-11T05:04:47;3.90;99.90
20528;DHT22;23612;50.894;10.700;2023-02-11T05:07:13;3.90;99.90
20528;DHT22;23612;50.894;10.700;2023-02-11T05:09:38;3.90;99.90
20528;DHT22;23612;50.894;10.700;2023-02-11T05:12:04;3.90;99.90
20528;DHT22;23612;50.894;10.700;2023-02-11T05:14:29;4.00;99.90
20528;DHT22;23612;50.894;10.700;2023-02-11T05:16:55;4.00;99.90
20528;DHT22;23612;50.894;10.700;2023-02-11T05:19:20;4.00;99.90
20528;DHT22;23612;50.894;10.700;2023-02-11T05:21:46;4.00;99.90
20528;DHT22;23612;50.894;10.700;2023-02-11T05:24:11;4.00;99.90
20528;DHT22;23612;50.894;10.700;2023-02-11T05:26:37;4.00;99.90
20528;DHT22;23612;50.894;10.700;2023-02-11T05:29:02;4.10;99.90
20528;DHT22;23612;50.894;10.700;2023-02-11T05:31:28;4.10;99.90
20528;DHT22;23612;50.894;10.700;2023-02-11T05:33:53;4.10;99.90
20528;DHT22;23612;50.894;10.700;2023-02-11T05:36:19;4.10;99.90
20528;DHT22;23612;50.894;10.700;2023-02-11T05:38:44;4.00;99.90
20528;DHT22;23612;50.894;10.700;2023-02-11T05:41:10;4.10;99.90
20528;DHT22;23612;50.894;10.700;2023-02-11T05:43:36;4.20;99.90
20528;DHT22;23612;50.894;10.700;2023-02-11T05:46:03;4.20;99.90
20528;DHT22;23612;50.894;10.700;2023-02-11T05:48:29;4.20;99.90
20528;DHT22;23612;50.894;10.700;2023-02-11T05:50:54;4.20;99.90
20528;DHT22;23612;50.894;10.700;2023-02-11T05:53:20;4.30;99.90
20528;DHT22;23612;50.894;10.700;2023-02-11T05:55:45;4.30;99.90
20528;DHT22;23612;50.894;10.700;2023-02-11T05:58:11;4.30;99.90
20528;DHT22;23612;50.894;10.700;2023-02-11T06:00:36;4.30;99.90
20528;DHT22;23612;50.894;10.700;2023-02-11T06:03:02;4.30;99.90
20528;DHT22;23612;50.894;10.700;2023-02-11T06:05:29;4.40;99.90
20528;DHT22;23612;50.894;10.700;2023-02-11T06:07:54;4.30;99.90
20528;DHT22;23612;50.894;10.700;2023-02-11T06:10:20;4.30;99.90
20528;DHT22;23612;50.894;10.700;2023-02-11T06:12:45;4.30;99.90
20528;DHT22;23612;50.894;10.700;2023-02-11T06:15:11;4.30;99.90
20528;DHT22;23612;50.894;10.700;2023-02-11T06:17:36;4.40;99.90
20528;DHT22;23612;50.894;10.700;2023-02-11T06:20:04;4.40;99.90
20528;DHT22;23612;50.894;10.700;2023-02-11T06:22:30;4.40;99.90
20528;DHT22;23612;50.894;10.700;2023-02-11T06:24:56;4.40;99.90
20528;DHT22;23612;50.894;10.700;2023-02-11T06:27:21;4.30;99.90
20528;DHT22;23612;50.894;10.700;2023-02-11T06:29:47;4.30;99.90
20528;DHT22;23612;50.894;10.700;2023-02-11T06:32:13;4.30;99.90
20528;DHT22;23612;50.894;10.700;2023-02-11T06:34:39;4.30;99.90
20528;DHT22;23612;50.894;10.700;2023-02-11T06:37:04;4.30;99.90
20528;DHT22;23612;50.894;10.700;2023-02-11T06:39:30;4.30;99.90
20528;DHT22;23612;50.894;10.700;2023-02-11T06:41:55;4.20;99.90
20528;DHT22;23612;50.894;10.700;2023-02-11T06:44:21;4.20;99.90
20528;DHT22;23612;50.894;10.700;2023-02-11T06:46:47;4.20;99.90
20528;DHT22;23612;50.894;10.700;2023-02-11T06:49:12;4.20;99.90
20528;DHT22;23612;50.894;10.700;2023-02-11T06:51:38;4.20;99.90
20528;DHT22;23612;50.894;10.700;2023-02-11T06:54:04;4.10;99.90
20528;DHT22;23612;50.894;10.700;2023-02-11T06:56:30;4.10;99.90
20528;DHT22;23612;50.894;10.700;2023-02-11T06:58:56;4.10;99.90
20528;DHT22;23612;50.894;10.700;2023-02-11T07:01:22;4.00;99.90
20528;DHT22;23612;50.894;10.700;2023-02-11T07:03:49;4.00;99.90
20528;DHT22;23612;50.894;10.700;2023-02-11T07:06:17;4.00;99.90
20528;DHT22;23612;50.894;10.700;2023-02-11T07:08:43;4.10;99.90
20528;DHT22;23612;50.894;10.700;2023-02-11T07:11:19;4.10;99.90
20528;DHT22;23612;50.894;10.700;2023-02-11T07:13:45;4.10;99.90
20528;DHT22;23612;50.894;10.700;2023-02-11T07:16:14;4.10;99.90
20528;DHT22;23612;50.894;10.700;2023-02-11T07:18:40;4.10;99.90
20528;DHT22;23612;50.894;10.700;2023-02-11T07:21:09;4.10;99.90
20528;DHT22;23612;50.894;10.700;2023-02-11T07:23:35;4.10;99.90
20528;DHT22;23612;50.894;10.700;2023-02-11T07:26:03;4.10;99.90
20528;DHT22;23612;50.894;10.700;2023-02-11T07:28:28;4.20;99.90
20528;DHT22;23612;50.894;10.700;2023-02-11T07:30:54;4.20;99.90
20528;DHT22;23612;50.894;10.700;2023-02-11T07:33:19;4.20;99.90
20528;DHT22;23612;50.894;10.700;2023-02-11T07:35:45;4.20;99.90
20528;DHT22;23612;50.894;10.700;2023-02-11T07:38:10;4.30;99.90
20528;DHT22;23612;50.894;10.700;2023-02-11T07:40:36;4.30;99.90
20528;DHT22;23612;50.894;10.700;2023-02-11T07:43:01;4.30;99.90
20528;DHT22;23612;50.894;10.700;2023-02-11T07:45:27;4.40;99.90
20528;DHT22;23612;50.894;10.700;2023-02-11T07:47:52;4.40;99.90
20528;DHT22;23612;50.894;10.700;2023-02-11T07:50:18;4.40;99.90
20528;DHT22;23612;50.894;10.700;2023-02-11T07:52:43;4.50;99.90
20528;DHT22;23612;50.894;10.700;2023-02-11T07:55:09;4.50;99.90
20528;DHT22;23612;50.894;10.700;2023-02-11T07:57:35;4.50;99.90
20528;DHT22;23612;50.894;10.700;2023-02-11T08:00:02;4.50;99.90
20528;DHT22;23612;50.894;10.700;2023-02-11T08:02:27;4.60;99.90
20528;DHT22;23612;50.894;10.700;2023-02-11T08:04:53;4.60;99.90
20528;DHT22;23612;50.894;10.700;2023-02-11T08:07:18;4.60;99.90
20528;DHT22;23612;50.894;10.700;2023-02-11T08:09:44;4.70;99.90
20528;DHT22;23612;50.894;10.700;2023-02-11T08:12:10;4.70;99.90
20528;DHT22;23612;50.894;10.700;2023-02-11T08:14:36;4.80;99.90
20528;DHT22;23612;50.894;10.700;2023-02-11T08:17:02;4.80;99.90
20528;DHT22;23612;50.894;10.700;2023-02-11T08:19:27;4.80;99.90
20528;DHT22;23612;50.894;10.700;2023-02-11T08:21:56;4.80;99.90
20528;DHT22;23612;50.894;10.700;2023-02-11T08:24:22;4.80;99.90
20528;DHT22;23612;50.894;10.700;2023-02-11T08:26:48;4.80;99.90
20528;DHT22;23612;50.894;10.700;2023-02-11T08:29:14;4.80;99.90
20528;DHT22;23612;50.894;10.700;2023-02-11T08:31:42;4.80;99.90
20528;DHT22;23612;50.894;10.700;2023-02-11T08:34:08;4.80;99.90
20528;DHT22;23612;50.894;10.700;2023-02-11T08:36:37;4.80;99.90
20528;DHT22;23612;50.894;10.700;2023-02-11T08:39:06;4.80;99.90
20528;DHT22;23612;50.894;10.700;2023-02-11T08:41:32;4.80;99.90
20528;DHT22;23612;50.894;10.700;2023-02-11T08:43:58;4.90;99.90
20528;DHT22;23612;50.894;10.700;2023-02-11T08:46:24;4.90;99.90
20528;DHT22;23612;50.894;10.700;2023-02-11T08:48:49;4.80;99.90
20528;DHT22;23612;50.894;10.700;2023-02-11T08:51:21;4.70;99.90
20528;DHT22;23612;50.894;10.700;2023-02-11T08:53:47;4.60;99.90
20528;DHT22;23612;50.894;10.700;2023-02-11T08:56:14;4.50;99.90
20528;DHT22;23612;50.894;10.700;2023-02-11T08:58:41;4.40;99.90
20528;DHT22;23612;50.894;10.700;2023-02-11T09:01:16;4.40;99.90
20528;DHT22;23612;50.894;10.700;2023-02-11T09:03:41;4.30;99.90
20528;DHT22;23612;50.894;10.700;2023-02-11T09:06:09;4.30;99.90
20528;DHT22;23612;50.894;10.700;2023-02-11T09:08:40;4.30;99.90
20528;DHT22;23612;50.894;10.700;2023-02-11T09:11:06;4.30;99.90
20528;DHT22;23612;50.894;10.700;2023-02-11T09:13:32;4.30;99.90
20528;DHT22;23612;50.894;10.700;2023-02-11T09:15:59;4.40;99.90
20528;DHT22;23612;50.894;10.700;2023-02-11T09:18:24;4.40;99.90
20528;DHT22;23612;50.894;10.700;2023-02-11T09:20:50;4.40;99.90
20528;DHT22;23612;50.894;10.700;2023-02-11T09:23:16;4.50;99.90
20528;DHT22;23612;50.894;10.700;2023-02-11T09:25:41;4.40;99.90
20528;DHT22;23612;50.894;10.700;2023-02-11T09:28:07;4.40;99.90
20528;DHT22;23612;50.894;10.700;2023-02-11T09:30:34;4.30;99.90
20528;DHT22;23612;50.894;10.700;2023-02-11T09:33:00;4.40;99.90
20528;DHT22;23612;50.894;10.700;2023-02-11T09:35:26;4.50;99.90
20528;DHT22;23612;50.894;10.700;2023-02-11T09:37:51;4.60;99.90
20528;DHT22;23612;50.894;10.700;2023-02-11T09:40:17;4.70;99.90
20528;DHT22;23612;50.894;10.700;2023-02-11T09:45:30;4.90;99.90
20528;DHT22;23612;50.894;10.700;2023-02-11T09:48:03;4.90;99.90
20528;DHT22;23612;50.894;10.700;2023-02-11T09:50:33;5.00;99.90
20528;DHT22;23612;50.894;10.700;2023-02-11T09:53:13;5.00;99.90
20528;DHT22;23612;50.894;10.700;2023-02-11T09:55:45;5.00;99.90
20528;DHT22;23612;50.894;10.700;2023-02-11T09:58:13;5.00;99.90
20528;DHT22;23612;50.894;10.700;2023-02-11T10:03:38;5.20;99.90
20528;DHT22;23612;50.894;10.700;2023-02-11T10:15:12;5.70;99.90
20528;DHT22;23612;50.894;10.700;2023-02-11T10:23:21;5.80;99.90
20528;DHT22;23612;50.894;10.700;2023-02-11T10:25:51;6.00;99.90
20528;DHT22;23612;50.894;10.700;2023-02-11T10:28:23;6.10;99.90
20528;DHT22;23612;50.894;10.700;2023-02-11T10:30:59;6.20;99.90
20528;DHT22;23612;50.894;10.700;2023-02-11T10:33:30;6.30;99.90
20528;DHT22;23612;50.894;10.700;2023-02-11T10:35:57;6.20;99.90
20528;DHT22;23612;50.894;10.700;2023-02-11T10:38:24;6.30;99.90
20528;DHT22;23612;50.894;10.700;2023-02-11T10:40:49;6.40;99.90
20528;DHT22;23612;50.894;10.700;2023-02-11T10:43:16;6.50;99.90
20528;DHT22;23612;50.894;10.700;2023-02-11T10:45:46;6.70;99.90
20528;DHT22;23612;50.894;10.700;2023-02-11T10:48:39;6.70;99.90
20528;DHT22;23612;50.894;10.700;2023-02-11T10:51:14;6.80;99.90
20528;DHT22;23612;50.894;10.700;2023-02-11T10:53:40;7.10;99.90
20528;DHT22;23612;50.894;10.700;2023-02-11T10:56:08;7.20;99.90
20528;DHT22;23612;50.894;10.700;2023-02-11T10:58:45;7.40;99.90
20528;DHT22;23612;50.894;10.700;2023-02-11T11:01:12;7.40;99.90
20528;DHT22;23612;50.894;10.700;2023-02-11T11:03:58;7.50;99.90
20528;DHT22;23612;50.894;10.700;2023-02-11T11:06:30;7.70;99.90
20528;DHT22;23612;50.894;10.700;2023-02-11T11:08:59;7.90;99.90
20528;DHT22;23612;50.894;10.700;2023-02-11T11:11:25;8.10;99.90
20528;DHT22;23612;50.894;10.700;2023-02-11T11:16:28;8.50;99.90
20528;DHT22;23612;50.894;10.700;2023-02-11T11:21:47;8.40;99.90
20528;DHT22;23612;50.894;10.700;2023-02-11T11:24:38;8.40;99.90
20528;DHT22;23612;50.894;10.700;2023-02-11T11:27:17;8.50;99.90
20528;DHT22;23612;50.894;10.700;2023-02-11T11:29:51;8.60;99.90
20528;DHT22;23612;50.894;10.700;2023-02-11T11:32:26;8.50;99.90
20528;DHT22;23612;50.894;10.700;2023-02-11T11:34:54;8.60;99.90
20528;DHT22;23612;50.894;10.700;2023-02-11T11:37:29;8.60;99.90
20528;DHT22;23612;50.894;10.700;2023-02-11T11:39:58;8.20;99.90
20528;DHT22;23612;50.894;10.700;2023-02-11T11:42:27;8.10;99.90
20528;DHT22;23612;50.894;10.700;2023-02-11T11:47:57;8.50;99.90
20528;DHT22;23612;50.894;10.700;2023-02-11T11:50:31;8.70;99.90
20528;DHT22;23612;50.894;10.700;2023-02-11T11:53:17;8.80;99.90
20528;DHT22;23612;50.894;10.700;2023-02-11T11:56:04;8.80;99.90
20528;DHT22;23612;50.894;10.700;2023-02-11T11:58:32;8.50;99.90
20528;DHT22;23612;50.894;10.700;2023-02-11T12:01:23;8.30;99.90
20528;DHT22;23612;50.894;10.700;2023-02-11T12:12:53;7.90;99.90
20528;DHT22;23612;50.894;10.700;2023-02-11T12:15:47;7.80;99.90
20528;DHT22;23612;50.894;10.700;2023-02-11T12:21:38;7.80;99.90
20528;DHT22;23612;50.894;10.700;2023-02-11T12:38:02;8.00;99.90
20528;DHT22;23612;50.894;10.700;2023-02-11T12:41:01;8.20;99.90
20528;DHT22;23612;50.894;10.700;2023-02-11T12:43:36;8.70;99.90
20528;DHT22;23612;50.894;10.700;2023-02-11T12:46:30;9.20;99.90
20528;DHT22;23612;50.894;10.700;2023-02-11T12:49:12;10.00;99.90
20528;DHT22;23612;50.894;10.700;2023-02-11T12:54:57;10.60;99.90
20528;DHT22;23612;50.894;10.700;2023-02-11T12:57:26;10.00;99.90
20528;DHT22;23612;50.894;10.700;2023-02-11T13:00:06;9.70;99.90
20528;DHT22;23612;50.894;10.700;2023-02-11T13:02:50;9.00;99.90
20528;DHT22;23612;50.894;10.700;2023-02-11T13:05:42;8.70;99.90
20528;DHT22;23612;50.894;10.700;2023-02-11T13:08:14;8.30;99.90
20528;DHT22;23612;50.894;10.700;2023-02-11T13:10:45;8.00;99.90
20528;DHT22;23612;50.894;10.700;2023-02-11T13:13:21;7.90;99.90
20528;DHT22;23612;50.894;10.700;2023-02-11T13:15:51;7.70;99.90
20528;DHT22;23612;50.894;10.700;2023-02-11T13:18:30;7.60;99.90
20528;DHT22;23612;50.894;10.700;2023-02-11T13:21:30;7.60;99.90
20528;DHT22;23612;50.894;10.700;2023-02-11T13:24:09;7.60;99.90
20528;DHT22;23612;50.894;10.700;2023-02-11T13:26:49;7.60;99.90
20528;DHT22;23612;50.894;10.700;2023-02-11T13:29:39;7.50;99.90
20528;DHT22;23612;50.894;10.700;2023-02-11T13:32:10;7.50;99.90
20528;DHT22;23612;50.894;10.700;2023-02-11T13:37:23;7.50;99.90
20528;DHT22;23612;50.894;10.700;2023-02-11T13:40:23;7.50;99.90
20528;DHT22;23612;50.894;10.700;2023-02-11T13:42:57;7.50;99.90
20528;DHT22;23612;50.894;10.700;2023-02-11T13:45:45;7.60;99.90
20528;DHT22;23612;50.894;10.700;2023-02-11T13:48:21;7.50;99.90
20528;DHT22;23612;50.894;10.700;2023-02-11T13:50:48;7.40;99.90
20528;DHT22;23612;50.894;10.700;2023-02-11T13:53:15;7.30;99.90
20528;DHT22;23612;50.894;10.700;2023-02-11T13:55:46;7.30;99.90
20528;DHT22;23612;50.894;10.700;2023-02-11T14:00:53;7.30;99.90
20528;DHT22;23612;50.894;10.700;2023-02-11T14:27:09;6.80;99.90
20528;DHT22;23612;50.894;10.700;2023-02-11T14:32:50;6.80;99.90
20528;DHT22;23612;50.894;10.700;2023-02-11T14:35:49;6.80;99.90
20528;DHT22;23612;50.894;10.700;2023-02-11T14:38:34;6.80;99.90
20528;DHT22;23612;50.894;10.700;2023-02-11T14:41:26;6.80;99.90
20528;DHT22;23612;50.894;10.700;2023-02-11T14:43:54;6.90;99.90
20528;DHT22;23612;50.894;10.700;2023-02-11T14:46:23;6.80;99.90
20528;DHT22;23612;50.894;10.700;2023-02-11T14:48:52;6.60;99.90
20528;DHT22;23612;50.894;10.700;2023-02-11T14:51:27;6.60;99.90
20528;DHT22;23612;50.894;10.700;2023-02-11T14:53:58;6.60;99.90
20528;DHT22;23612;50.894;10.700;2023-02-11T14:56:27;6.50;99.90
20528;DHT22;23612;50.894;10.700;2023-02-11T14:58:56;6.50;99.90
20528;DHT22;23612;50.894;10.700;2023-02-11T15:01:39;6.50;99.90
20528;DHT22;23612;50.894;10.700;2023-02-11T15:04:30;6.50;99.90
20528;DHT22;23612;50.894;10.700;2023-02-11T15:06:58;6.50;99.90
20528;DHT22;23612;50.894;10.700;2023-02-11T15:11:56;6.50;99.90
20528;DHT22;23612;50.894;10.700;2023-02-11T15:14:26;6.50;99.90
20528;DHT22;23612;50.894;10.700;2023-02-11T15:16:54;6.60;99.90
20528;DHT22;23612;50.894;10.700;2023-02-11T15:19:38;6.60;99.90
20528;DHT22;23612;50.894;10.700;2023-02-11T15:22:13;6.60;99.90
20528;DHT22;23612;50.894;10.700;2023-02-11T15:24:42;6.60;99.90
20528;DHT22;23612;50.894;10.700;2023-02-11T15:29:39;6.60;99.90
20528;DHT22;23612;50.894;10.700;2023-02-11T15:34:34;6.50;99.90
20528;DHT22;23612;50.894;10.700;2023-02-11T15:37:01;6.50;99.90
20528;DHT22;23612;50.894;10.700;2023-02-11T15:39:38;6.50;99.90
20528;DHT22;23612;50.894;10.700;2023-02-11T15:42:25;6.50;99.90
20528;DHT22;23612;50.894;10.700;2023-02-11T15:47:38;6.40;99.90
20528;DHT22;23612;50.894;10.700;2023-02-11T15:50:05;6.40;99.90
20528;DHT22;23612;50.894;10.700;2023-02-11T15:52:31;6.50;99.90
20528;DHT22;23612;50.894;10.700;2023-02-11T15:54:58;6.50;99.90
20528;DHT22;23612;50.894;10.700;2023-02-11T15:57:26;6.50;99.90
20528;DHT22;23612;50.894;10.700;2023-02-11T15:59:53;6.40;99.90
20528;DHT22;23612;50.894;10.700;2023-02-11T16:02:22;6.40;99.90
20528;DHT22;23612;50.894;10.700;2023-02-11T16:04:54;6.40;99.90
20528;DHT22;23612;50.894;10.700;2023-02-11T16:10:02;6.40;99.90
20528;DHT22;23612;50.894;10.700;2023-02-11T16:12:28;6.40;99.90
20528;DHT22;23612;50.894;10.700;2023-02-11T16:14:54;6.30;99.90
20528;DHT22;23612;50.894;10.700;2023-02-11T16:17:26;6.30;99.90
20528;DHT22;23612;50.894;10.700;2023-02-11T16:19:53;6.30;99.90
20528;DHT22;23612;50.894;10.700;2023-02-11T16:22:23;6.20;99.90
20528;DHT22;23612;50.894;10.700;2023-02-11T16:24:52;6.20;99.90
20528;DHT22;23612;50.894;10.700;2023-02-11T16:27:24;6.20;99.90
20528;DHT22;23612;50.894;10.700;2023-02-11T16:29:53;6.20;99.90
20528;DHT22;23612;50.894;10.700;2023-02-11T16:32:24;6.20;99.90
20528;DHT22;23612;50.894;10.700;2023-02-11T16:34:51;6.10;99.90
20528;DHT22;23612;50.894;10.700;2023-02-11T16:37:17;6.10;99.90
20528;DHT22;23612;50.894;10.700;2023-02-11T16:39:43;6.10;99.90
20528;DHT22;23612;50.894;10.700;2023-02-11T16:42:10;6.10;99.90
20528;DHT22;23612;50.894;10.700;2023-02-11T16:44:35;6.10;99.90
20528;DHT22;23612;50.894;10.700;2023-02-11T16:47:02;6.10;99.90
20528;DHT22;23612;50.894;10.700;2023-02-11T16:49:40;6.10;99.90
20528;DHT22;23612;50.894;10.700;2023-02-11T16:52:14;6.00;99.90
20528;DHT22;23612;50.894;10.700;2023-02-11T16:54:40;5.90;99.90
20528;DHT22;23612;50.894;10.700;2023-02-11T16:57:18;6.00;99.90
20528;DHT22;23612;50.894;10.700;2023-02-11T16:59:44;5.90;99.90
20528;DHT22;23612;50.894;10.700;2023-02-11T17:02:24;5.90;99.90
20528;DHT22;23612;50.894;10.700;2023-02-11T17:04:54;5.80;99.90
20528;DHT22;23612;50.894;10.700;2023-02-11T17:07:21;5.90;99.90
20528;DHT22;23612;50.894;10.700;2023-02-11T17:09:46;5.90;99.90
20528;DHT22;23612;50.894;10.700;2023-02-11T17:12:11;6.00;99.90
20528;DHT22;23612;50.894;10.700;2023-02-11T17:14:37;6.00;99.90
20528;DHT22;23612;50.894;10.700;2023-02-11T17:17:03;6.00;99.90
20528;DHT22;23612;50.894;10.700;2023-02-11T17:19:28;6.00;99.90
20528;DHT22;23612;50.894;10.700;2023-02-11T17:21:54;6.00;99.90
20528;DHT22;23612;50.894;10.700;2023-02-11T17:24:20;5.90;99.90
20528;DHT22;23612;50.894;10.700;2023-02-11T17:26:47;5.90;99.90
20528;DHT22;23612;50.894;10.700;2023-02-11T17:29:15;5.90;99.90
20528;DHT22;23612;50.894;10.700;2023-02-11T17:31:41;5.90;99.90
20528;DHT22;23612;50.894;10.700;2023-02-11T17:34:07;5.90;99.90
20528;DHT22;23612;50.894;10.700;2023-02-11T17:36:32;5.90;99.90
20528;DHT22;23612;50.894;10.700;2023-02-11T17:38:59;5.90;99.90
20528;DHT22;23612;50.894;10.700;2023-02-11T17:41:24;5.90;99.90
20528;DHT22;23612;50.894;10.700;2023-02-11T17:43:50;5.90;99.90
20528;DHT22;23612;50.894;10.700;2023-02-11T17:46:16;5.90;99.90
20528;DHT22;23612;50.894;10.700;2023-02-11T17:48:42;5.90;99.90
20528;DHT22;23612;50.894;10.700;2023-02-11T17:51:23;5.90;99.90
20528;DHT22;23612;50.894;10.700;2023-02-11T17:53:50;5.90;99.90
20528;DHT22;23612;50.894;10.700;2023-02-11T17:56:15;5.90;99.90